Time;durP1;ratioP1;P1;durP2;ratioP2;P2;SDS_P1;SDS_P2;PMS_P1;PMS_P2;Temp;Humidity;BMP_temperature;BMP_pressure;BME280_temperature;BME280_humidity;BME280_pressure;Samples;Min_cycle;Max_cycle;Signal;HPM_P1;HPM_P2
2022/05/25 04:03:37;;;;;;;0.70;0.70;;;14.00;99.90;;;;;;5913588;23;20637;-67
2022/05/25 04:06:03;;;;;;;0.60;0.60;;;14.00;99.90;;;;;;4957248;29;20913;-68
2022/05/25 04:08:29;;;;;;;0.90;0.90;;;14.00;99.90;;;;;;4957612;29;20175;-67
2022/05/25 04:10:54;;;;;;;0.70;0.70;;;14.00;99.90;;;;;;4957534;29;20176;-67
2022/05/25 04:13:21;;;;;;;0.93;0.77;;;14.00;99.90;;;;;;4956162;28;20613;-67
2022/05/25 04:15:46;;;;;;;0.80;0.80;;;14.10;99.90;;;;;;4957138;28;20180;-68
2022/05/25 04:18:12;;;;;;;0.80;0.80;;;14.00;99.90;;;;;;4957768;28;20495;-67
2022/05/25 04:20:37;;;;;;;0.70;0.70;;;14.10;99.90;;;;;;4957062;28;20661;-67
2022/05/25 04:23:08;;;;;;;0.80;0.80;;;14.10;99.90;;;;;;4956768;28;20184;-68
2022/05/25 04:25:33;;;;;;;0.70;0.70;;;14.10;99.90;;;;;;4957149;28;20244;-68
2022/05/25 04:27:59;;;;;;;1.03;0.90;;;14.10;99.90;;;;;;4956755;28;20495;-68
2022/05/25 04:30:27;;;;;;;0.67;0.67;;;14.10;99.90;;;;;;4957115;28;20543;-68
2022/05/25 04:32:54;;;;;;;1.57;1.27;;;14.10;99.90;;;;;;4956370;28;20192;-68
2022/05/25 04:35:20;;;;;;;0.63;0.63;;;14.10;99.90;;;;;;4956414;28;20783;-68
2022/05/25 04:37:49;;;;;;;0.77;0.77;;;14.20;99.90;;;;;;4956905;28;20415;-68
2022/05/25 04:40:26;;;;;;;1.53;0.63;;;14.20;99.90;;;;;;4955805;29;20419;-68
2022/05/25 04:42:53;;;;;;;0.90;0.90;;;14.20;99.90;;;;;;4956140;28;20933;-67
2022/05/25 04:45:19;;;;;;;0.80;0.70;;;14.30;99.90;;;;;;4956843;28;20477;-68
2022/05/25 04:47:45;;;;;;;0.90;0.80;;;14.30;99.90;;;;;;4956706;28;20448;-68
2022/05/25 04:50:12;;;;;;;0.53;0.53;;;14.30;99.90;;;;;;4956642;28;20424;-69
2022/05/25 04:52:39;;;;;;;0.60;0.60;;;14.30;99.90;;;;;;4953074;28;20845;-68
2022/05/25 04:55:07;;;;;;;0.77;0.77;;;14.40;99.90;;;;;;4941453;28;20543;-69
2022/05/25 04:57:33;;;;;;;0.50;0.50;;;14.40;99.90;;;;;;4944115;29;20950;-67
2022/05/25 05:00:00;;;;;;;0.83;0.83;;;14.40;99.90;;;;;;4956825;28;20415;-67
2022/05/25 05:02:30;;;;;;;0.77;0.77;;;14.50;99.90;;;;;;4949768;28;20402;-67
2022/05/25 05:04:57;;;;;;;1.07;0.90;;;14.50;99.90;;;;;;4944580;28;20494;-68
2022/05/25 05:07:33;;;;;;;2.90;2.00;;;14.60;99.90;;;;;;4937675;29;21171;-69
2022/05/25 05:10:01;;;;;;;0.80;0.80;;;14.70;99.90;;;;;;4937010;29;20554;-68
2022/05/25 05:12:27;;;;;;;0.80;0.80;;;14.80;99.90;;;;;;4947005;29;20420;-68
2022/05/25 05:14:54;;;;;;;4.10;1.00;;;14.90;99.90;;;;;;4936710;29;20445;-70
2022/05/25 05:17:19;;;;;;;0.80;0.80;;;14.90;99.90;;;;;;4936564;29;20413;-68
2022/05/25 05:19:45;;;;;;;1.07;1.07;;;15.00;99.90;;;;;;4936774;29;20456;-68
2022/05/25 05:22:11;;;;;;;0.70;0.70;;;15.10;99.90;;;;;;4936685;29;20181;-69
2022/05/25 05:24:36;;;;;;;0.90;0.90;;;15.20;99.90;;;;;;4936403;29;20250;-68
2022/05/25 05:27:02;;;;;;;1.13;1.03;;;15.30;99.90;;;;;;4943451;29;20212;-68
2022/05/25 05:29:30;;;;;;;3.70;2.97;;;15.40;99.90;;;;;;4954617;29;20184;-69
2022/05/25 05:31:56;;;;;;;3.30;2.47;;;15.40;99.90;;;;;;4950168;28;20460;-69
2022/05/25 05:34:21;;;;;;;1.20;1.10;;;15.40;99.90;;;;;;4936182;29;20472;-71
2022/05/25 05:36:48;;;;;;;0.80;0.80;;;15.50;99.90;;;;;;4936579;29;20988;-72
2022/05/25 05:39:16;;;;;;;0.90;0.90;;;15.50;99.90;;;;;;4936479;29;20256;-71
2022/05/25 05:41:52;;;;;;;0.80;0.80;;;15.50;99.90;;;;;;4951360;29;20917;-66
2022/05/25 05:44:22;;;;;;;0.97;0.97;;;15.60;99.90;;;;;;4955244;28;20463;-64
2022/05/25 05:46:49;;;;;;;1.13;1.10;;;15.80;99.90;;;;;;4950444;28;20424;-65
2022/05/25 05:49:15;;;;;;;0.97;0.97;;;15.90;99.90;;;;;;4936613;29;20373;-67
2022/05/25 05:51:42;;;;;;;0.80;0.80;;;16.00;99.90;;;;;;4936547;29;20423;-66
2022/05/25 05:54:08;;;;;;;1.00;0.80;;;16.10;99.90;;;;;;4935787;29;20190;-69
2022/05/25 05:56:34;;;;;;;1.10;0.80;;;16.10;99.90;;;;;;4936364;29;20435;-69
2022/05/25 05:59:01;;;;;;;1.27;1.20;;;16.20;99.90;;;;;;4936226;29;20719;-70
2022/05/25 06:01:27;;;;;;;1.00;1.00;;;16.20;99.90;;;;;;4940225;29;20396;-70
2022/05/25 06:03:53;;;;;;;0.70;0.70;;;16.20;99.80;;;;;;4954427;28;20412;-71
2022/05/25 06:06:19;;;;;;;0.80;0.80;;;16.40;99.90;;;;;;4955349;28;20743;-71
2022/05/25 06:08:48;;;;;;;1.00;1.00;;;16.60;99.90;;;;;;4953933;28;20174;-72
2022/05/25 06:11:15;;;;;;;0.93;0.80;;;16.90;99.50;;;;;;4955001;28;20389;-70
2022/05/25 06:13:41;;;;;;;1.00;1.00;;;17.10;99.10;;;;;;4954704;28;20518;-68
2022/05/25 06:21:35;;;;;;;0.80;0.80;;;17.90;97.80;;;;;;4935730;29;20423;-69
2022/05/25 06:24:01;;;;;;;1.00;0.80;;;18.00;96.90;;;;;;4934198;29;20935;-70
2022/05/25 06:26:30;;;;;;;0.70;0.70;;;18.10;97.30;;;;;;4935778;29;20280;-68
2022/05/25 06:29:00;;;;;;;1.90;1.07;;;18.30;96.30;;;;;;4934379;29;20484;-69
2022/05/25 06:31:27;;;;;;;1.10;0.90;;;18.30;95.80;;;;;;4943429;29;20448;-68
2022/05/25 06:33:53;;;;;;;0.90;0.90;;;18.30;96.10;;;;;;4954398;28;20427;-68
2022/05/25 06:36:23;;;;;;;0.67;0.67;;;18.30;96.40;;;;;;4954979;28;20404;-68
2022/05/25 06:38:49;;;;;;;1.97;1.87;;;18.20;96.60;;;;;;4941291;28;20425;-68
2022/05/25 06:41:15;;;;;;;1.20;1.20;;;18.20;96.70;;;;;;4935502;29;20430;-68
2022/05/25 06:43:42;;;;;;;2.30;0.70;;;18.40;96.80;;;;;;4933791;29;20440;-69
2022/05/25 06:46:09;;;;;;;0.83;0.80;;;18.70;96.00;;;;;;4935331;29;20442;-69
2022/05/25 06:48:35;;;;;;;0.77;0.77;;;18.90;96.40;;;;;;4935973;29;20380;-71
2022/05/25 06:51:11;;;;;;;0.80;0.80;;;19.00;94.10;;;;;;4935623;29;20409;-68
2022/05/25 06:53:37;;;;;;;1.13;0.80;;;19.10;94.50;;;;;;4948565;28;20247;-68
2022/05/25 06:56:02;;;;;;;0.60;0.60;;;19.20;94.00;;;;;;4954434;28;20916;-67
2022/05/25 06:58:28;;;;;;;0.90;0.90;;;19.30;93.90;;;;;;4954470;28;20231;-67
2022/05/25 07:00:53;;;;;;;0.83;0.83;;;19.30;94.70;;;;;;4954079;28;20526;-69
2022/05/25 07:03:20;;;;;;;2.47;1.00;;;19.40;95.10;;;;;;4954127;28;20548;-68
2022/05/25 07:05:46;;;;;;;0.93;0.90;;;19.40;94.60;;;;;;4953431;28;20606;-69
2022/05/25 07:08:12;;;;;;;0.60;0.60;;;19.50;94.30;;;;;;4950081;28;20435;-69
2022/05/25 07:10:38;;;;;;;0.60;0.60;;;19.50;94.30;;;;;;4935409;29;20423;-68
2022/05/25 07:13:03;;;;;;;0.87;0.87;;;19.60;93.80;;;;;;4935076;29;20180;-70
2022/05/25 07:15:29;;;;;;;1.00;0.83;;;19.70;93.30;;;;;;4935885;29;20264;-69
2022/05/25 07:17:54;;;;;;;0.80;0.80;;;19.80;94.00;;;;;;4937258;29;20178;-68
2022/05/25 07:20:20;;;;;;;0.90;0.90;;;19.60;93.00;;;;;;4939430;29;20763;-70
2022/05/25 07:22:46;;;;;;;6.03;0.97;;;19.40;93.80;;;;;;4941473;29;20228;-68
2022/05/25 07:25:12;;;;;;;0.70;0.70;;;19.40;94.10;;;;;;4957889;28;20274;-68
2022/05/25 07:27:39;;;;;;;0.80;0.80;;;19.60;94.50;;;;;;4958316;28;20627;-69
2022/05/25 07:30:06;;;;;;;1.10;1.10;;;20.10;93.30;;;;;;4958112;28;20173;-69
2022/05/25 07:32:31;;;;;;;1.07;0.93;;;20.70;93.00;;;;;;4957199;28;20391;-69
2022/05/25 07:35:03;;;;;;;0.80;0.80;;;21.80;92.90;;;;;;4957931;28;20898;-69
2022/05/25 07:37:33;;;;;;;0.80;0.60;;;22.90;90.60;;;;;;4955194;28;20201;-70
2022/05/25 07:40:05;;;;;;;0.80;0.80;;;23.70;87.50;;;;;;4938796;29;20388;-69
2022/05/25 07:42:32;;;;;;;1.70;0.90;;;24.70;83.50;;;;;;4938528;29;20870;-67
2022/05/25 07:45:00;;;;;;;0.93;0.93;;;25.90;79.90;;;;;;4938294;29;20469;-68
2022/05/25 07:47:28;;;;;;;2.00;1.17;;;26.50;76.20;;;;;;4938613;29;20398;-69
2022/05/25 07:49:54;;;;;;;1.33;1.23;;;26.80;72.30;;;;;;4938640;29;20420;-68
2022/05/25 07:52:26;;;;;;;1.47;1.37;;;26.60;72.30;;;;;;4941297;29;20428;-69
2022/05/25 07:54:52;;;;;;;0.97;0.90;;;27.00;70.80;;;;;;4957784;28;20439;-68
2022/05/25 07:57:18;;;;;;;0.97;0.97;;;27.70;70.60;;;;;;4957455;28;20801;-68
2022/05/25 07:59:43;;;;;;;2.70;1.20;;;28.70;68.60;;;;;;4957563;28;20468;-69
2022/05/25 08:07:56;;;;;;;1.00;1.00;;;31.40;60.80;;;;;;4947045;29;20789;-69
2022/05/25 08:10:24;;;;;;;1.20;1.10;;;31.30;59.50;;;;;;4938237;29;20410;-70
2022/05/25 08:12:53;;;;;;;1.10;1.10;;;31.30;57.30;;;;;;4937533;29;20205;-69
2022/05/25 08:15:18;;;;;;;1.00;1.00;;;31.50;57.80;;;;;;4938213;29;20465;-69
2022/05/25 08:17:44;;;;;;;1.10;1.00;;;32.00;56.20;;;;;;4947898;29;20429;-68
2022/05/25 08:20:11;;;;;;;1.20;1.20;;;32.30;56.00;;;;;;4957264;28;20170;-69
2022/05/25 08:22:37;;;;;;;0.83;0.83;;;32.10;54.10;;;;;;4956787;28;20233;-69
2022/05/25 08:25:04;;;;;;;0.90;0.90;;;31.30;54.30;;;;;;4956853;28;20551;-68
2022/05/25 08:27:31;;;;;;;1.30;1.20;;;30.70;56.20;;;;;;4957189;28;20413;-69
2022/05/25 08:29:57;;;;;;;1.30;1.27;;;30.50;56.00;;;;;;4956470;28;20441;-69
2022/05/25 08:32:23;;;;;;;1.33;1.13;;;30.50;55.00;;;;;;4946797;28;20443;-68
2022/05/25 08:34:49;;;;;;;1.50;1.40;;;31.00;57.60;;;;;;4937611;29;20512;-68
2022/05/25 08:37:15;;;;;;;1.57;1.30;;;31.00;54.40;;;;;;4937949;29;20905;-68
2022/05/25 08:39:41;;;;;;;2.60;1.00;;;30.90;54.10;;;;;;4937636;29;20178;-69
2022/05/25 08:42:12;;;;;;;0.90;0.90;;;30.70;54.00;;;;;;4937135;29;20562;-69
2022/05/25 08:44:41;;;;;;;1.10;1.00;;;30.90;53.80;;;;;;4937359;29;20306;-69
2022/05/25 08:47:09;;;;;;;1.50;1.30;;;31.20;53.80;;;;;;4938154;29;20818;-68
2022/05/25 08:49:36;;;;;;;1.53;0.93;;;31.90;53.90;;;;;;4943422;28;20430;-68
2022/05/25 08:52:04;;;;;;;0.90;0.90;;;32.30;51.50;;;;;;4937461;29;20420;-72
2022/05/25 08:54:31;;;;;;;1.00;1.00;;;32.50;51.80;;;;;;4937312;29;20433;-67
2022/05/25 08:57:12;;;;;;;1.13;1.03;;;32.10;50.90;;;;;;4937381;29;20422;-68
2022/05/25 08:59:47;;;;;;;0.87;0.87;;;30.80;53.50;;;;;;4937513;29;20423;-68
2022/05/25 09:02:47;;;;;;;1.33;1.00;;;30.10;53.60;;;;;;4940327;29;20434;-69
2022/05/25 09:05:21;;;;;;;1.20;1.10;;;29.30;55.60;;;;;;4942931;28;20487;-68
2022/05/25 09:08:01;;;;;;;0.90;0.90;;;28.20;55.60;;;;;;4956282;28;20771;-68
2022/05/25 09:10:32;;;;;;;0.87;0.87;;;27.60;56.40;;;;;;4955820;28;20442;-68
2022/05/25 09:13:31;;;;;;;0.80;0.80;;;27.00;56.50;;;;;;4955941;28;20409;-67
2022/05/25 09:19:05;;;;;;;1.60;0.80;;;25.60;58.60;;;;;;4946939;29;20411;-67
2022/05/25 09:21:36;;;;;;;1.80;1.10;;;25.20;58.80;;;;;;4936976;29;20384;-68
2022/05/25 09:24:08;;;;;;;1.20;1.10;;;24.50;59.40;;;;;;4936101;29;20461;-70
2022/05/25 09:26:34;;;;;;;0.87;0.87;;;23.70;63.40;;;;;;4936989;29;20402;-69
2022/05/25 09:29:04;;;;;;;1.23;1.13;;;23.20;65.50;;;;;;4936676;29;20385;-69
2022/05/25 09:31:54;;;;;;;0.80;0.80;;;22.90;66.60;;;;;;4936629;29;20413;-67
2022/05/25 09:34:47;;;;;;;0.93;0.90;;;22.60;67.30;;;;;;4951625;28;20434;-67
2022/05/25 09:37:34;;;;;;;1.30;1.20;;;22.30;67.50;;;;;;4948719;28;20444;-67
2022/05/25 09:40:13;;;;;;;0.83;0.83;;;22.40;69.90;;;;;;4936101;29;20386;-69
2022/05/25 09:42:38;;;;;;;1.43;0.93;;;23.70;68.90;;;;;;4936039;29;20568;-68
2022/05/25 09:45:14;;;;;;;2.13;0.97;;;25.00;65.80;;;;;;4935967;29;20526;-68
2022/05/25 09:47:45;;;;;;;1.07;0.97;;;26.20;63.50;;;;;;4937006;29;20619;-69
2022/05/25 09:50:33;;;;;;;1.47;0.80;;;27.00;60.50;;;;;;4936527;29;20471;-70
2022/05/25 09:53:04;;;;;;;0.90;0.90;;;27.40;58.40;;;;;;4940945;28;20407;-69
2022/05/25 09:55:37;;;;;;;0.90;0.87;;;27.70;57.70;;;;;;4950055;28;20392;-66
2022/05/25 09:58:09;;;;;;;1.70;1.20;;;28.40;57.30;;;;;;4948441;29;20435;-69
2022/05/25 10:00:58;;;;;;;1.17;1.00;;;29.40;56.10;;;;;;4955620;28;20426;-69
2022/05/25 10:03:40;;;;;;;1.00;1.00;;;29.70;54.80;;;;;;4954968;28;20435;-69
2022/05/25 10:06:29;;;;;;;0.90;0.90;;;30.00;53.30;;;;;;4955478;28;20963;-70
2022/05/25 10:09:09;;;;;;;1.40;0.80;;;29.70;53.30;;;;;;4940188;28;20483;-70
2022/05/25 10:12:17;;;;;;;1.00;0.73;;;28.80;55.20;;;;;;4936299;29;20765;-71
2022/05/25 10:14:58;;;;;;;0.90;0.90;;;27.90;56.70;;;;;;4936254;29;20531;-70
2022/05/25 10:17:59;;;;;;;0.90;0.87;;;27.80;57.70;;;;;;4936113;29;20392;-68
2022/05/25 10:20:43;;;;;;;1.60;0.80;;;27.80;58.10;;;;;;4934514;29;20433;-67
2022/05/25 10:23:24;;;;;;;0.70;0.60;;;28.00;57.70;;;;;;4944770;28;20444;-68
2022/05/25 10:25:55;;;;;;;1.47;0.80;;;27.90;55.20;;;;;;4953915;29;20975;-67
2022/05/25 10:28:29;;;;;;;1.07;0.97;;;27.90;55.50;;;;;;4955318;28;20440;-67
2022/05/25 10:37:09;;;;;;;0.80;0.80;;;29.60;54.10;;;;;;4914755;29;20421;-69
2022/05/25 10:39:36;;;;;;;0.80;0.77;;;29.90;54.40;;;;;;4914841;29;20438;-67
2022/05/25 10:42:25;;;;;;;0.90;0.90;;;29.50;52.70;;;;;;4914774;29;20283;-71
2022/05/25 10:45:08;;;;;;;1.17;0.90;;;29.50;55.20;;;;;;4914786;29;20444;-67
2022/05/25 10:47:49;;;;;;;0.80;0.80;;;28.90;52.90;;;;;;4915086;29;20425;-67
2022/05/25 10:50:32;;;;;;;1.67;1.57;;;28.20;53.80;;;;;;4914815;29;20477;-67
2022/05/25 10:53:25;;;;;;;0.70;0.70;;;27.00;54.80;;;;;;4917706;29;20462;-66
2022/05/25 10:56:16;;;;;;;0.90;0.90;;;26.40;55.40;;;;;;4902683;29;20392;-66
2022/05/25 10:59:00;;;;;;;0.90;0.90;;;25.90;57.20;;;;;;4918791;29;20397;-67
2022/05/25 11:01:56;;;;;;;1.10;1.10;;;25.60;57.20;;;;;;4918670;29;20389;-67
2022/05/25 11:04:34;;;;;;;0.60;0.60;;;25.60;58.30;;;;;;4924118;29;20452;-67
2022/05/25 11:07:03;;;;;;;1.50;1.40;;;25.50;58.50;;;;;;4939463;29;20376;-67
2022/05/25 11:09:50;;;;;;;0.97;0.73;;;25.20;57.60;;;;;;4958137;29;20421;-65
2022/05/25 11:12:27;;;;;;;1.00;0.90;;;24.90;59.80;;;;;;4958175;28;20771;-68
2022/05/25 11:15:10;;;;;;;0.90;0.90;;;24.40;58.10;;;;;;4958378;28;20404;-66
2022/05/25 11:18:00;;;;;;;0.60;0.60;;;23.70;59.20;;;;;;4958476;28;20395;-66
2022/05/25 11:20:53;;;;;;;1.10;0.90;;;23.40;62.10;;;;;;4958511;28;20384;-67
2022/05/25 11:23:35;;;;;;;2.27;2.07;;;23.40;63.50;;;;;;4946021;28;20424;-67
2022/05/25 11:26:03;;;;;;;1.33;1.23;;;23.20;63.80;;;;;;4942398;29;20440;-67
2022/05/25 11:28:40;;;;;;;0.70;0.70;;;23.10;65.30;;;;;;4952056;29;20391;-69
2022/05/25 11:31:17;;;;;;;0.77;0.77;;;23.30;65.90;;;;;;4956393;28;20434;-68
2022/05/25 11:34:04;;;;;;;0.60;0.60;;;23.40;64.60;;;;;;4940657;29;20456;-68
2022/05/25 11:36:48;;;;;;;0.70;0.70;;;23.50;62.10;;;;;;4944058;28;20817;-68
2022/05/25 11:39:34;;;;;;;0.70;0.57;;;23.40;59.10;;;;;;4939378;29;20420;-68
2022/05/25 11:42:27;;;;;;;0.80;0.80;;;23.20;61.40;;;;;;4949061;29;20429;-68
2022/05/25 11:45:29;;;;;;;1.27;1.17;;;23.00;64.20;;;;;;4943213;29;20465;-67
2022/05/25 11:47:58;;;;;;;0.80;0.80;;;22.90;62.20;;;;;;4939712;29;20413;-66
2022/05/25 11:51:01;;;;;;;0.90;0.90;;;22.70;63.60;;;;;;4940551;28;20421;-67
2022/05/25 11:53:41;;;;;;;2.20;0.90;;;22.60;64.90;;;;;;4953407;28;20436;-66
2022/05/25 11:56:52;;;;;;;0.70;0.70;;;22.70;65.40;;;;;;4957502;28;20443;-67
2022/05/25 11:59:53;;;;;;;1.83;0.73;;;22.90;64.40;;;;;;4945417;29;20447;-67
2022/05/25 12:02:44;;;;;;;0.60;0.60;;;23.10;61.30;;;;;;4939518;28;20726;-67
2022/05/25 12:05:34;;;;;;;0.70;0.60;;;23.20;65.00;;;;;;4946172;29;20446;-67
2022/05/25 12:08:12;;;;;;;0.60;0.57;;;23.30;61.90;;;;;;4941827;28;20425;-66
2022/05/25 12:10:44;;;;;;;0.70;0.70;;;23.20;62.40;;;;;;4938154;29;20460;-67
2022/05/25 12:13:27;;;;;;;0.90;0.90;;;23.10;64.00;;;;;;4937755;29;20429;-67
2022/05/25 12:16:22;;;;;;;0.60;0.60;;;23.20;63.90;;;;;;4936939;29;20780;-65
2022/05/25 12:18:54;;;;;;;0.80;0.80;;;23.40;65.10;;;;;;4938111;29;20392;-68
2022/05/25 12:21:22;;;;;;;0.60;0.60;;;23.40;64.20;;;;;;4942997;29;20408;-69
2022/05/25 12:24:09;;;;;;;1.57;1.47;;;23.30;59.80;;;;;;4956231;29;20496;-67
2022/05/25 12:26:37;;;;;;;0.60;0.60;;;23.10;62.90;;;;;;4957103;28;20383;-68
2022/05/25 12:29:31;;;;;;;1.60;0.60;;;22.80;60.00;;;;;;4945848;29;20767;-68
2022/05/25 12:31:57;;;;;;;1.50;1.40;;;22.30;62.10;;;;;;4952728;29;20394;-68
2022/05/25 12:34:38;;;;;;;0.50;0.50;;;22.20;62.20;;;;;;4946012;28;20462;-67
2022/05/25 12:37:05;;;;;;;3.20;1.00;;;22.20;61.70;;;;;;4949205;29;20432;-69
2022/05/25 12:39:42;;;;;;;0.73;0.73;;;22.10;61.50;;;;;;4955636;28;20772;-69
2022/05/25 12:42:23;;;;;;;1.10;0.80;;;22.00;61.30;;;;;;4953308;28;20926;-69
2022/05/25 12:50:47;;;;;;;0.70;0.70;;;21.90;62.10;;;;;;4951316;29;20418;-69
2022/05/25 12:53:37;;;;;;;1.00;0.80;;;21.90;63.20;;;;;;4941079;28;20443;-70
2022/05/25 12:56:30;;;;;;;0.63;0.63;;;22.00;62.60;;;;;;4951547;29;20226;-67
2022/05/25 12:59:29;;;;;;;0.80;0.80;;;22.10;61.90;;;;;;4937299;29;20759;-69
2022/05/25 13:02:13;;;;;;;1.60;0.80;;;22.00;62.70;;;;;;4935584;29;20422;-68
2022/05/25 13:04:49;;;;;;;0.80;0.80;;;22.00;63.50;;;;;;4936856;29;20471;-69
2022/05/25 13:07:20;;;;;;;0.80;0.80;;;22.00;63.40;;;;;;4954501;29;20450;-69
2022/05/25 13:09:47;;;;;;;0.50;0.50;;;22.00;65.70;;;;;;4956360;28;20483;-68
2022/05/25 13:12:40;;;;;;;0.70;0.70;;;22.10;67.30;;;;;;4956082;28;20496;-69
2022/05/25 13:15:15;;;;;;;0.83;0.83;;;22.30;66.30;;;;;;4955435;28;20482;-69
2022/05/25 13:17:56;;;;;;;1.10;1.10;;;22.70;65.80;;;;;;4956173;28;20411;-68
2022/05/25 13:20:27;;;;;;;0.83;0.83;;;22.80;62.40;;;;;;4951777;28;20940;-68
2022/05/25 13:22:55;;;;;;;0.80;0.80;;;22.70;61.20;;;;;;4936522;29;20410;-69
2022/05/25 13:25:55;;;;;;;0.80;0.80;;;22.50;62.40;;;;;;4936805;29;20458;-68
2022/05/25 13:28:51;;;;;;;1.10;1.10;;;22.30;64.10;;;;;;4937403;29;20400;-68
2022/05/25 13:31:35;;;;;;;0.60;0.60;;;22.10;62.50;;;;;;4937152;29;20381;-68
2022/05/25 13:34:13;;;;;;;0.90;0.80;;;22.10;64.00;;;;;;4936261;29;20796;-68
2022/05/25 13:36:48;;;;;;;0.40;0.40;;;22.30;63.90;;;;;;4953073;29;20737;-68
2022/05/25 13:39:21;;;;;;;0.80;0.80;;;22.40;59.70;;;;;;4956123;28;20426;-68
2022/05/25 13:41:55;;;;;;;3.10;1.00;;;22.50;60.00;;;;;;4955242;28;20415;-68
2022/05/25 13:44:27;;;;;;;0.63;0.63;;;22.50;59.40;;;;;;4955056;28;20434;-68
2022/05/25 13:46:56;;;;;;;1.20;0.80;;;22.50;60.20;;;;;;4955654;28;20399;-68
2022/05/25 13:49:21;;;;;;;0.93;0.73;;;22.40;59.70;;;;;;4955850;28;20384;-68
2022/05/25 13:51:48;;;;;;;1.90;0.63;;;22.20;61.70;;;;;;4955486;28;20917;-68
2022/05/25 13:54:24;;;;;;;2.10;0.80;;;22.20;60.60;;;;;;4955314;28;20285;-68
2022/05/25 13:56:50;;;;;;;0.70;0.70;;;22.20;61.60;;;;;;4949990;28;20420;-68
2022/05/25 13:59:21;;;;;;;0.80;0.80;;;22.20;61.50;;;;;;4936303;29;20411;-68
2022/05/25 14:01:47;;;;;;;0.70;0.70;;;22.20;61.80;;;;;;4936283;29;20442;-68
2022/05/25 14:04:26;;;;;;;0.80;0.80;;;22.20;62.70;;;;;;4935684;29;20898;-68
2022/05/25 14:06:54;;;;;;;1.50;0.90;;;22.20;66.80;;;;;;4936519;29;20253;-69
2022/05/25 14:12:18;;;;;;;0.80;0.80;;;22.30;64.90;;;;;;4938184;29;20589;-70
2022/05/25 14:15:02;;;;;;;3.23;0.83;;;22.30;63.40;;;;;;4945359;28;20504;-68
2022/05/25 14:17:30;;;;;;;0.67;0.67;;;22.30;62.80;;;;;;4940908;29;20958;-69
2022/05/25 14:20:03;;;;;;;2.40;0.67;;;22.40;62.90;;;;;;4936129;29;20472;-70
2022/05/25 14:22:33;;;;;;;0.83;0.80;;;22.50;65.40;;;;;;4952505;29;20993;-68
2022/05/25 14:25:12;;;;;;;0.60;0.50;;;22.70;66.70;;;;;;4954831;28;20431;-69
2022/05/25 14:27:39;;;;;;;0.70;0.63;;;22.90;62.90;;;;;;4938934;28;20429;-69
2022/05/25 14:30:19;;;;;;;0.70;0.70;;;23.20;64.90;;;;;;4947124;29;20489;-69
2022/05/25 14:33:00;;;;;;;0.70;0.70;;;23.30;60.60;;;;;;4954924;28;20420;-69
2022/05/25 14:35:26;;;;;;;1.13;0.70;;;23.30;60.20;;;;;;4954352;28;20511;-69
2022/05/25 14:37:52;;;;;;;1.00;0.70;;;23.30;60.30;;;;;;4955120;28;20870;-69
2022/05/25 14:40:26;;;;;;;0.67;0.67;;;23.40;62.50;;;;;;4941441;28;20902;-69
2022/05/25 14:42:57;;;;;;;0.70;0.70;;;23.50;60.00;;;;;;4946150;28;20427;-69
2022/05/25 14:45:24;;;;;;;0.70;0.70;;;23.50;60.80;;;;;;4954760;28;20890;-68
2022/05/25 14:48:00;;;;;;;0.57;0.57;;;23.40;61.30;;;;;;4949015;28;20457;-68
2022/05/25 14:50:56;;;;;;;3.27;0.93;;;23.40;64.10;;;;;;4944930;29;20424;-69
2022/05/25 14:53:26;;;;;;;1.80;0.80;;;23.40;61.30;;;;;;4936048;29;20452;-69
2022/05/25 14:56:03;;;;;;;0.60;0.60;;;23.20;59.80;;;;;;4935951;29;20417;-69
2022/05/25 14:58:48;;;;;;;3.17;1.00;;;23.20;61.00;;;;;;4935722;29;20417;-68
2022/05/25 15:01:16;;;;;;;0.57;0.57;;;23.00;59.80;;;;;;4936670;29;20439;-67
2022/05/25 15:03:50;;;;;;;0.60;0.60;;;23.00;59.80;;;;;;4949553;28;20463;-68
2022/05/25 15:06:22;;;;;;;0.50;0.50;;;23.00;64.70;;;;;;4954216;28;20467;-67
2022/05/25 15:08:51;;;;;;;1.23;0.63;;;23.10;66.20;;;;;;4954957;28;20409;-68
2022/05/25 15:11:36;;;;;;;0.53;0.53;;;23.10;62.20;;;;;;4945247;28;20432;-67
2022/05/25 15:20:25;;;;;;;1.33;0.90;;;23.00;61.10;;;;;;4936647;29;20431;-67
2022/05/25 15:22:52;;;;;;;1.80;0.87;;;22.90;61.30;;;;;;4935414;29;20393;-68
2022/05/25 15:25:40;;;;;;;0.97;0.50;;;22.90;63.70;;;;;;4935204;29;20960;-67
2022/05/25 15:28:14;;;;;;;0.80;0.80;;;22.90;61.70;;;;;;4935550;29;20421;-67
2022/05/25 15:30:41;;;;;;;1.17;1.17;;;22.70;63.90;;;;;;4935432;29;20782;-68
2022/05/25 15:33:08;;;;;;;2.83;0.73;;;22.50;63.50;;;;;;4948899;28;20457;-68
2022/05/25 15:35:34;;;;;;;0.60;0.60;;;22.50;65.30;;;;;;4954782;28;20908;-68
2022/05/25 15:38:06;;;;;;;0.67;0.67;;;22.50;63.70;;;;;;4953643;28;20412;-68
2022/05/25 15:40:37;;;;;;;1.17;0.80;;;22.50;64.90;;;;;;4957585;28;20534;-67
2022/05/25 15:43:04;;;;;;;0.90;0.90;;;22.50;64.50;;;;;;4957459;28;20756;-68
2022/05/25 15:45:31;;;;;;;5.97;0.80;;;22.50;65.40;;;;;;4957709;28;20818;-69
2022/05/25 15:48:01;;;;;;;0.63;0.60;;;22.50;66.20;;;;;;4956111;28;20447;-69
2022/05/25 15:50:27;;;;;;;0.70;0.70;;;22.40;65.60;;;;;;4956318;28;20421;-69
2022/05/25 15:52:52;;;;;;;0.70;0.63;;;22.40;64.50;;;;;;4957395;28;20947;-69
2022/05/25 15:55:18;;;;;;;1.10;0.90;;;22.30;63.60;;;;;;4957790;28;20417;-69
2022/05/25 15:57:45;;;;;;;0.70;0.70;;;22.30;65.30;;;;;;4957318;28;20225;-69
2022/05/25 16:00:12;;;;;;;0.70;0.70;;;22.20;66.00;;;;;;4956580;28;20439;-68
2022/05/25 16:02:40;;;;;;;2.50;0.90;;;22.00;65.30;;;;;;4943962;28;20850;-68
2022/05/25 16:05:07;;;;;;;1.60;0.97;;;21.90;65.60;;;;;;4944742;29;20546;-67
2022/05/25 16:10:20;;;;;;;0.60;0.60;;;21.70;66.10;;;;;;4957042;29;20471;-67
2022/05/25 16:12:45;;;;;;;0.53;0.53;;;21.80;66.30;;;;;;4956852;28;20420;-68
2022/05/25 16:15:11;;;;;;;0.60;0.60;;;21.70;65.10;;;;;;4957170;28;20499;-65
2022/05/25 16:17:37;;;;;;;0.70;0.70;;;21.60;66.00;;;;;;4940640;28;20205;-65
2022/05/25 16:20:04;;;;;;;0.50;0.50;;;21.60;66.50;;;;;;4936891;29;20283;-65
2022/05/25 16:22:30;;;;;;;0.80;0.80;;;21.60;66.40;;;;;;4955750;29;20179;-65
2022/05/25 16:24:55;;;;;;;0.60;0.60;;;21.60;67.40;;;;;;4957120;28;20852;-67
2022/05/25 16:27:22;;;;;;;2.97;0.87;;;21.60;68.20;;;;;;4944936;28;20182;-67
2022/05/25 16:29:48;;;;;;;1.07;0.97;;;21.70;67.00;;;;;;4951457;29;20197;-66
2022/05/25 16:32:14;;;;;;;0.60;0.60;;;21.80;66.90;;;;;;4941080;28;20453;-68
2022/05/25 16:34:43;;;;;;;0.93;0.60;;;21.80;66.40;;;;;;4951326;29;20628;-64
2022/05/25 16:37:09;;;;;;;0.77;0.77;;;21.90;65.10;;;;;;4956705;28;20413;-67
2022/05/25 16:39:36;;;;;;;0.70;0.70;;;21.80;66.20;;;;;;4945031;28;20813;-66
2022/05/25 16:42:05;;;;;;;0.60;0.60;;;21.70;65.90;;;;;;4937379;29;20642;-70
2022/05/25 16:44:32;;;;;;;1.43;1.33;;;21.50;65.80;;;;;;4950819;29;20496;-65
2022/05/25 16:46:57;;;;;;;1.53;1.43;;;21.40;66.20;;;;;;4951925;28;20793;-65
2022/05/25 16:49:23;;;;;;;7.90;6.17;;;21.30;67.20;;;;;;4956444;28;20405;-66
2022/05/25 16:51:49;;;;;;;1.40;1.30;;;21.20;67.60;;;;;;4956808;28;20173;-65
2022/05/25 16:54:16;;;;;;;1.10;0.73;;;21.10;67.90;;;;;;4954339;28;20686;-64
2022/05/25 16:56:43;;;;;;;2.80;2.70;;;21.00;68.00;;;;;;4956402;28;20541;-65
2022/05/25 16:59:09;;;;;;;0.83;0.83;;;20.90;69.40;;;;;;4955202;29;20418;-66
2022/05/25 17:01:35;;;;;;;0.80;0.80;;;20.90;70.00;;;;;;4942236;28;20778;-65
2022/05/25 17:04:01;;;;;;;0.70;0.70;;;20.90;70.50;;;;;;4936909;29;20729;-66
2022/05/25 17:06:27;;;;;;;0.63;0.63;;;20.90;70.50;;;;;;4936946;29;20543;-63
2022/05/25 17:08:53;;;;;;;1.00;0.67;;;20.90;70.10;;;;;;4944674;29;20201;-64
2022/05/25 17:11:20;;;;;;;0.87;0.87;;;21.00;70.40;;;;;;4956370;28;20416;-65
2022/05/25 17:13:46;;;;;;;0.90;0.70;;;21.00;71.10;;;;;;4955843;28;20494;-67
2022/05/25 17:16:13;;;;;;;1.43;0.90;;;20.90;71.00;;;;;;4955984;28;20487;-69
2022/05/25 17:21:27;;;;;;;1.07;1.03;;;20.90;71.00;;;;;;4953683;29;20431;-70
2022/05/25 17:23:53;;;;;;;1.60;1.50;;;20.80;70.70;;;;;;4953954;28;20452;-69
2022/05/25 17:26:19;;;;;;;0.70;0.67;;;20.70;69.90;;;;;;4955871;28;20579;-68
2022/05/25 17:28:45;;;;;;;0.90;0.90;;;20.70;70.30;;;;;;4955370;28;20515;-69
2022/05/25 17:31:11;;;;;;;1.45;1.10;;;20.60;70.40;;;;;;4948818;28;20482;-74
2022/05/25 17:33:38;;;;;;;1.53;1.23;;;20.60;70.80;;;;;;4936082;29;20208;-67
2022/05/25 17:41:50;;;;;;;1.67;1.53;;;20.40;71.00;;;;;;4936608;29;20963;-74
2022/05/25 17:44:21;;;;;;;1.10;1.00;;;20.30;70.90;;;;;;4936076;29;20445;-71
2022/05/25 17:46:48;;;;;;;2.57;2.37;;;20.10;71.50;;;;;;4946065;29;20428;-69
2022/05/25 17:49:16;;;;;;;2.20;1.50;;;20.10;72.00;;;;;;4936725;29;20515;-68
2022/05/25 17:51:42;;;;;;;1.67;1.57;;;20.00;72.00;;;;;;4945233;29;20479;-68
2022/05/25 17:54:10;;;;;;;0.80;0.80;;;20.00;72.80;;;;;;4955211;28;20523;-66
2022/05/25 17:56:36;;;;;;;0.80;0.80;;;19.90;72.60;;;;;;4954123;28;20425;-67
2022/05/25 17:59:02;;;;;;;0.63;0.63;;;19.80;73.30;;;;;;4955479;28;20502;-66
2022/05/25 18:01:28;;;;;;;1.23;0.93;;;19.70;73.00;;;;;;4954053;28;20848;-67
2022/05/25 18:03:54;;;;;;;0.60;0.60;;;19.70;74.00;;;;;;4953940;28;20204;-69